Time;durP1;ratioP1;P1;durP2;ratioP2;P2;SDS_P1;SDS_P2;PMS_P1;PMS_P2;Temp;Humidity;BMP_temperature;BMP_pressure;BME280_temperature;BME280_humidity;BME280_pressure;Samples;Min_cycle;Max_cycle;Signal;HPM_P1;HPM_P2
2023/02/05 00:01:31;;;;;;;18.90;8.70;;;6.20;99.90;;;;;;6107247;23;20431;-70
2023/02/05 00:03:58;;;;;;;7.30;6.40;;;6.30;99.90;;;;;;6114743;23;20381;-70
2023/02/05 00:06:26;;;;;;;12.67;7.30;;;6.30;99.90;;;;;;6115988;23;20391;-69
2023/02/05 00:08:54;;;;;;;13.40;9.53;;;6.40;99.90;;;;;;6113084;23;20389;-69
2023/02/05 00:11:21;;;;;;;12.07;7.90;;;6.40;99.90;;;;;;6116069;23;20431;-70
2023/02/05 00:13:48;;;;;;;11.17;6.67;;;6.40;99.90;;;;;;6115010;23;20426;-70
2023/02/05 00:16:17;;;;;;;10.20;6.00;;;6.50;99.90;;;;;;6112126;23;20433;-70
2023/02/05 00:18:44;;;;;;;11.60;7.20;;;6.50;99.90;;;;;;6111336;23;20450;-70
2023/02/05 00:21:12;;;;;;;15.07;6.67;;;6.50;99.90;;;;;;6113973;23;20409;-70
2023/02/05 00:23:41;;;;;;;13.50;7.77;;;6.40;99.90;;;;;;6118816;23;20803;-70
2023/02/05 00:26:09;;;;;;;9.70;6.77;;;6.40;99.90;;;;;;6120916;23;20370;-70
2023/02/05 00:28:36;;;;;;;9.57;6.63;;;6.30;99.90;;;;;;6114877;23;20411;-70
2023/02/05 00:31:08;;;;;;;10.60;7.50;;;6.40;99.90;;;;;;6118216;23;20527;-71
2023/02/05 00:33:35;;;;;;;13.50;6.90;;;6.50;99.90;;;;;;6115678;23;20993;-70
2023/02/05 00:36:02;;;;;;;11.13;7.23;;;6.50;99.90;;;;;;6115645;23;20937;-70
2023/02/05 00:38:30;;;;;;;11.33;6.23;;;6.50;99.90;;;;;;6111839;23;20424;-70
2023/02/05 00:40:59;;;;;;;15.57;7.80;;;6.50;99.90;;;;;;6110773;23;20435;-70
2023/02/05 00:43:26;;;;;;;21.03;8.30;;;6.60;99.90;;;;;;6116395;23;20441;-70
2023/02/05 00:45:53;;;;;;;12.17;7.60;;;6.60;99.90;;;;;;6116113;23;20514;-68
2023/02/05 00:48:20;;;;;;;9.97;5.80;;;6.60;99.90;;;;;;6061626;23;20995;-70
2023/02/05 00:50:48;;;;;;;13.60;6.30;;;6.70;99.90;;;;;;6117365;23;20779;-70
2023/02/05 00:53:17;;;;;;;16.77;8.80;;;6.70;99.90;;;;;;6117364;23;20500;-70
2023/02/05 00:55:44;;;;;;;15.10;7.07;;;6.70;99.90;;;;;;6116747;23;20418;-68
2023/02/05 00:58:14;;;;;;;6.30;5.50;;;6.60;99.90;;;;;;6115933;23;20441;-70
2023/02/05 01:00:41;;;;;;;9.63;4.57;;;6.50;99.90;;;;;;6113988;23;21084;-70
2023/02/05 01:03:08;;;;;;;11.17;6.83;;;6.40;99.90;;;;;;6113705;23;20534;-70
2023/02/05 01:05:36;;;;;;;15.70;5.60;;;6.40;99.90;;;;;;6112152;23;20910;-68
2023/02/05 01:08:05;;;;;;;14.60;6.70;;;6.40;99.90;;;;;;6115975;23;20530;-70
2023/02/05 01:10:32;;;;;;;13.90;7.43;;;6.40;99.90;;;;;;6117621;23;20425;-69
2023/02/05 01:13:00;;;;;;;17.27;5.57;;;6.40;99.90;;;;;;6115912;23;20436;-70
2023/02/05 01:15:28;;;;;;;11.00;5.53;;;6.50;99.90;;;;;;6117313;23;20417;-69
2023/02/05 01:17:56;;;;;;;9.43;6.63;;;6.40;99.90;;;;;;6115803;23;20471;-69
2023/02/05 01:20:23;;;;;;;8.87;5.93;;;6.40;99.90;;;;;;6094388;23;20374;-69
2023/02/05 01:22:50;;;;;;;7.37;4.90;;;6.40;99.90;;;;;;6116280;23;20429;-69
2023/02/05 01:25:17;;;;;;;9.23;6.80;;;6.50;99.90;;;;;;6113584;23;20442;-69
2023/02/05 01:27:45;;;;;;;10.23;6.70;;;6.40;99.90;;;;;;6115668;23;20469;-70
2023/02/05 01:30:12;;;;;;;9.90;6.00;;;6.50;99.90;;;;;;6117698;23;20882;-70
2023/02/05 01:32:41;;;;;;;13.37;6.70;;;6.40;99.90;;;;;;6115437;23;20425;-69
2023/02/05 01:35:09;;;;;;;12.90;5.83;;;6.50;99.90;;;;;;6115278;23;20803;-68
2023/02/05 01:37:36;;;;;;;9.97;6.27;;;6.60;99.90;;;;;;6117428;23;20476;-71
2023/02/05 01:40:05;;;;;;;17.87;6.87;;;6.60;99.90;;;;;;6118754;23;20411;-71
2023/02/05 01:42:33;;;;;;;15.67;7.03;;;6.50;99.90;;;;;;6117301;23;20437;-71
2023/02/05 01:45:40;;;;;;;20.70;7.27;;;6.50;99.90;;;;;;6115513;23;20890;-69
2023/02/05 01:48:12;;;;;;;18.80;6.47;;;6.60;99.90;;;;;;6115016;23;20476;-70
2023/02/05 01:50:42;;;;;;;13.00;6.67;;;6.70;99.90;;;;;;6117475;23;20489;-69
2023/02/05 01:53:14;;;;;;;11.80;6.30;;;6.80;99.90;;;;;;6114829;23;20443;-71
2023/02/05 01:55:48;;;;;;;10.20;6.50;;;6.70;99.90;;;;;;6117576;23;21072;-70
2023/02/05 01:58:15;;;;;;;12.70;8.00;;;6.80;99.90;;;;;;6113281;23;20401;-71
2023/02/05 02:00:43;;;;;;;20.60;7.03;;;6.90;99.90;;;;;;6114885;23;20474;-69
2023/02/05 02:03:14;;;;;;;16.03;6.07;;;7.00;99.90;;;;;;6113097;23;20496;-71
2023/02/05 02:05:41;;;;;;;14.13;7.10;;;6.90;99.90;;;;;;6113729;23;20918;-70
2023/02/05 02:08:10;;;;;;;12.23;8.00;;;6.90;99.90;;;;;;6111898;23;20445;-70
2023/02/05 02:10:39;;;;;;;16.93;6.80;;;6.90;99.90;;;;;;6113759;23;20457;-70
2023/02/05 02:13:06;;;;;;;6.23;5.60;;;6.90;99.90;;;;;;6111552;23;20424;-70
2023/02/05 02:15:33;;;;;;;15.63;7.73;;;6.90;99.90;;;;;;6117780;23;20389;-71
2023/02/05 02:20:46;;;;;;;10.03;7.83;;;7.00;99.90;;;;;;6115172;23;21216;-69
2023/02/05 02:23:25;;;;;;;17.53;7.33;;;7.10;99.90;;;;;;6114610;23;20719;-69
2023/02/05 02:26:41;;;;;;;9.27;5.93;;;7.00;99.90;;;;;;6115611;23;20387;-71
2023/02/05 02:29:17;;;;;;;12.00;7.37;;;6.90;99.90;;;;;;6102006;23;20393;-70
2023/02/05 02:31:51;;;;;;;30.07;9.13;;;6.90;99.90;;;;;;6116211;23;20406;-69
2023/02/05 02:34:25;;;;;;;13.63;9.10;;;6.90;99.90;;;;;;6111225;23;20612;-71
2023/02/05 02:36:58;;;;;;;18.93;8.43;;;6.90;99.90;;;;;;6111718;23;20490;-69
2023/02/05 02:39:30;;;;;;;20.20;6.90;;;6.90;99.90;;;;;;6113885;23;20473;-68
2023/02/05 02:42:05;;;;;;;15.70;7.10;;;7.00;99.90;;;;;;6114667;23;20759;-68
2023/02/05 02:44:37;;;;;;;10.20;6.30;;;7.10;99.90;;;;;;6113935;23;20376;-68
2023/02/05 02:47:12;;;;;;;11.87;5.13;;;6.90;99.90;;;;;;6114944;23;20754;-69
2023/02/05 02:49:42;;;;;;;12.43;5.47;;;6.70;99.90;;;;;;6116701;23;20370;-69
2023/02/05 02:52:12;;;;;;;10.60;7.47;;;6.70;99.90;;;;;;6111225;23;20466;-69
2023/02/05 02:54:43;;;;;;;9.47;6.47;;;6.70;99.90;;;;;;6112647;23;20389;-69
2023/02/05 02:57:12;;;;;;;9.13;7.17;;;6.90;99.90;;;;;;6114251;23;21215;-68
2023/02/05 02:59:43;;;;;;;8.77;6.80;;;7.00;99.90;;;;;;6113481;23;20381;-68
2023/02/05 03:02:14;;;;;;;8.60;5.37;;;7.00;99.90;;;;;;6115669;23;20464;-69
2023/02/05 03:04:44;;;;;;;8.80;6.37;;;7.00;99.90;;;;;;6114006;23;20425;-68
2023/02/05 03:07:18;;;;;;;16.70;7.13;;;7.10;99.90;;;;;;6114867;23;20423;-69
2023/02/05 03:09:50;;;;;;;7.57;6.00;;;7.10;99.90;;;;;;6115996;23;20717;-68
2023/02/05 03:12:18;;;;;;;16.90;5.90;;;7.30;99.90;;;;;;6119733;23;20455;-69
2023/02/05 03:14:46;;;;;;;8.10;5.57;;;7.40;99.90;;;;;;6113275;23;20491;-69
2023/02/05 03:17:17;;;;;;;18.33;6.40;;;7.40;99.90;;;;;;6113906;23;20480;-69
2023/02/05 03:19:44;;;;;;;29.40;6.27;;;7.40;99.90;;;;;;6111568;23;21085;-69
2023/02/05 03:22:12;;;;;;;7.43;4.30;;;7.30;99.90;;;;;;6111309;23;20419;-69
2023/02/05 03:24:40;;;;;;;12.53;5.13;;;7.30;99.90;;;;;;6113882;23;20444;-69
2023/02/05 03:27:07;;;;;;;19.40;6.73;;;7.30;99.90;;;;;;6114288;23;20410;-68
2023/02/05 03:29:37;;;;;;;14.30;4.40;;;7.30;99.90;;;;;;6111771;23;20858;-69
2023/02/05 03:32:19;;;;;;;12.33;4.63;;;7.30;99.90;;;;;;6110847;23;20437;-68
2023/02/05 03:34:55;;;;;;;5.97;3.93;;;7.20;99.90;;;;;;6114711;23;20389;-68
2023/02/05 03:37:32;;;;;;;18.07;5.50;;;7.20;99.90;;;;;;6114357;23;20398;-70
2023/02/05 03:40:10;;;;;;;15.83;5.40;;;7.20;99.90;;;;;;6115207;23;20403;-68
2023/02/05 03:42:47;;;;;;;10.43;4.10;;;7.10;99.90;;;;;;6116558;23;20781;-69
2023/02/05 03:45:33;;;;;;;10.90;4.23;;;7.20;99.90;;;;;;6112297;23;20434;-70
2023/02/05 03:48:12;;;;;;;15.83;7.57;;;7.20;99.90;;;;;;6117648;23;20517;-69
2023/02/05 03:50:43;;;;;;;15.00;4.97;;;7.10;99.90;;;;;;6112317;23;20411;-70
2023/02/05 03:53:29;;;;;;;12.30;5.30;;;7.20;99.90;;;;;;6114928;23;20427;-69
2023/02/05 03:56:05;;;;;;;12.63;4.60;;;7.20;99.90;;;;;;6115614;23;20366;-69
2023/02/05 03:58:38;;;;;;;14.03;6.00;;;7.30;99.90;;;;;;6112385;23;20406;-69
2023/02/05 04:01:07;;;;;;;24.13;6.17;;;7.40;99.90;;;;;;6116192;23;20440;-69
2023/02/05 04:03:35;;;;;;;14.17;6.33;;;7.40;99.90;;;;;;6114189;23;20411;-70
2023/02/05 04:06:02;;;;;;;15.27;5.00;;;7.40;99.90;;;;;;6117848;23;20414;-70
2023/02/05 04:08:29;;;;;;;8.47;5.57;;;7.50;99.90;;;;;;6119189;23;20975;-69
2023/02/05 04:10:56;;;;;;;17.90;6.67;;;7.60;99.90;;;;;;6118489;23;20454;-69
2023/02/05 04:13:23;;;;;;;7.07;4.73;;;7.70;99.90;;;;;;6115616;23;20410;-70
2023/02/05 04:15:51;;;;;;;9.43;5.77;;;7.70;99.90;;;;;;6112202;23;21334;-69
2023/02/05 04:18:18;;;;;;;12.23;5.17;;;7.70;99.90;;;;;;6113642;23;20407;-70
2023/02/05 04:20:48;;;;;;;10.27;5.07;;;7.60;99.90;;;;;;6116690;23;20492;-69
2023/02/05 04:23:15;;;;;;;9.40;5.10;;;7.60;99.90;;;;;;6116317;23;20410;-69
2023/02/05 04:25:43;;;;;;;16.40;7.43;;;7.70;99.90;;;;;;6116446;23;21239;-70
2023/02/05 04:28:12;;;;;;;18.20;5.20;;;7.70;99.90;;;;;;6114073;23;20411;-69
2023/02/05 04:30:39;;;;;;;19.23;7.83;;;7.70;99.90;;;;;;6110034;23;20956;-70
2023/02/05 04:33:06;;;;;;;13.27;5.90;;;7.80;99.90;;;;;;6117642;23;20986;-69
2023/02/05 04:35:33;;;;;;;9.23;5.60;;;7.80;99.90;;;;;;6116999;23;20457;-70
2023/02/05 04:38:01;;;;;;;12.27;7.10;;;7.80;99.90;;;;;;6118147;23;20413;-70
2023/02/05 04:40:29;;;;;;;12.77;6.73;;;7.70;99.90;;;;;;6113094;23;20497;-69
2023/02/05 04:42:56;;;;;;;25.53;6.23;;;7.60;99.90;;;;;;6115895;23;20441;-70
2023/02/05 04:45:25;;;;;;;14.00;6.37;;;7.50;99.90;;;;;;6113108;23;20390;-69
2023/02/05 04:47:52;;;;;;;10.90;5.17;;;7.40;99.90;;;;;;6110844;23;20389;-70
2023/02/05 04:50:19;;;;;;;11.40;5.33;;;7.50;99.90;;;;;;6110158;23;20389;-68
2023/02/05 04:52:48;;;;;;;14.50;6.13;;;7.50;99.90;;;;;;6117412;23;20434;-70
2023/02/05 04:55:17;;;;;;;13.13;8.10;;;7.50;99.90;;;;;;6115595;23;20430;-70
2023/02/05 04:57:44;;;;;;;12.90;5.73;;;7.50;99.90;;;;;;6116396;23;20414;-70
2023/02/05 05:00:12;;;;;;;36.03;10.77;;;7.50;99.90;;;;;;6115149;23;20489;-70
2023/02/05 05:02:40;;;;;;;15.50;7.07;;;7.60;99.90;;;;;;6115721;23;20442;-69
2023/02/05 05:05:07;;;;;;;21.07;7.07;;;7.50;99.90;;;;;;6121501;23;20410;-70
2023/02/05 05:07:34;;;;;;;19.73;8.50;;;7.50;99.90;;;;;;6116957;23;20393;-69
2023/02/05 05:10:01;;;;;;;16.03;8.00;;;7.50;99.90;;;;;;6116215;23;20512;-68
2023/02/05 05:12:29;;;;;;;26.70;9.50;;;7.50;99.90;;;;;;6116755;23;20586;-70
2023/02/05 05:14:56;;;;;;;17.73;7.93;;;7.60;99.90;;;;;;6115084;23;20511;-70
2023/02/05 05:17:23;;;;;;;16.67;7.90;;;7.60;99.90;;;;;;6113535;23;20415;-69
2023/02/05 05:19:50;;;;;;;13.97;8.63;;;7.50;99.90;;;;;;6115384;23;20422;-67
2023/02/05 05:22:17;;;;;;;15.57;8.53;;;7.60;99.90;;;;;;6113492;23;20441;-69
2023/02/05 05:24:44;;;;;;;15.40;7.63;;;7.70;99.90;;;;;;6119152;23;20428;-69
2023/02/05 05:27:11;;;;;;;16.17;8.10;;;7.70;99.90;;;;;;6116100;23;20501;-68
2023/02/05 05:29:39;;;;;;;15.70;8.00;;;7.70;99.90;;;;;;6113283;23;20391;-69
2023/02/05 05:32:06;;;;;;;20.20;8.37;;;7.70;99.90;;;;;;6108217;23;20481;-69
2023/02/05 05:34:33;;;;;;;19.40;9.27;;;7.60;99.90;;;;;;6113431;23;20433;-69
2023/02/05 05:37:00;;;;;;;22.60;7.70;;;7.70;99.90;;;;;;6113417;23;20450;-68
2023/02/05 05:44:58;;;;;;;18.53;10.10;;;7.80;99.90;;;;;;6113054;23;20353;-69
2023/02/05 05:47:25;;;;;;;19.33;9.13;;;7.90;99.90;;;;;;6115476;23;20472;-69
2023/02/05 05:49:52;;;;;;;17.70;10.27;;;7.80;99.90;;;;;;6115398;23;20490;-69
2023/02/05 05:52:19;;;;;;;22.07;8.53;;;7.80;99.90;;;;;;6112991;23;20435;-69
2023/02/05 05:54:46;;;;;;;15.03;8.20;;;7.80;99.90;;;;;;6114113;23;21423;-68
2023/02/05 05:57:13;;;;;;;26.70;9.87;;;7.80;99.90;;;;;;6116497;23;20394;-69
2023/02/05 05:59:40;;;;;;;27.30;10.73;;;7.80;99.90;;;;;;6121000;23;20389;-68
2023/02/05 06:02:08;;;;;;;21.03;9.80;;;7.80;99.90;;;;;;6113511;23;20469;-69
2023/02/05 06:04:35;;;;;;;21.43;11.47;;;7.80;99.90;;;;;;6112784;23;20382;-70
2023/02/05 06:07:02;;;;;;;20.07;10.43;;;7.70;99.90;;;;;;6111972;23;20395;-70
2023/02/05 06:09:29;;;;;;;32.77;10.50;;;7.70;99.90;;;;;;6110686;23;20852;-69
2023/02/05 06:11:56;;;;;;;27.40;11.03;;;7.70;99.90;;;;;;6110473;23;20709;-69
2023/02/05 06:14:23;;;;;;;20.60;9.67;;;7.70;99.90;;;;;;6108506;23;20516;-68
2023/02/05 06:16:50;;;;;;;20.97;10.97;;;7.90;99.90;;;;;;6109567;23;20425;-70
2023/02/05 06:19:19;;;;;;;27.97;11.60;;;7.80;99.90;;;;;;6113471;23;20401;-70
2023/02/05 06:21:46;;;;;;;29.33;11.60;;;7.80;99.90;;;;;;6112935;23;20500;-70
2023/02/05 06:24:12;;;;;;;22.00;10.60;;;7.80;99.90;;;;;;6106956;23;20484;-70
2023/02/05 06:26:41;;;;;;;27.50;11.63;;;7.80;99.90;;;;;;6114697;23;20710;-70
2023/02/05 06:29:09;;;;;;;13.90;9.37;;;7.80;99.90;;;;;;6109942;23;20557;-70
2023/02/05 06:31:36;;;;;;;35.83;11.73;;;7.90;99.90;;;;;;6113507;23;20470;-69
2023/02/05 06:34:03;;;;;;;26.93;14.47;;;7.80;99.90;;;;;;6113327;23;20464;-70
2023/02/05 06:36:31;;;;;;;28.70;12.30;;;7.80;99.90;;;;;;6114581;23;20533;-69
2023/02/05 06:38:58;;;;;;;32.13;13.20;;;7.90;99.90;;;;;;6111580;23;20491;-68
2023/02/05 06:41:25;;;;;;;29.77;13.53;;;7.90;99.90;;;;;;6111361;23;20427;-71
2023/02/05 06:43:52;;;;;;;32.30;14.00;;;7.90;99.90;;;;;;6113161;23;20461;-71
2023/02/05 06:46:19;;;;;;;26.27;11.93;;;7.90;99.90;;;;;;6114341;23;20393;-69
2023/02/05 06:48:46;;;;;;;19.97;9.73;;;8.00;99.90;;;;;;6062090;23;20414;-68
2023/02/05 06:51:14;;;;;;;20.57;10.30;;;7.90;99.90;;;;;;6113350;23;20444;-70
2023/02/05 06:53:43;;;;;;;36.97;15.43;;;8.00;99.90;;;;;;6112288;23;20510;-70
2023/02/05 06:56:13;;;;;;;27.30;12.80;;;8.00;99.90;;;;;;6122810;23;20549;-71
2023/02/05 06:58:40;;;;;;;30.27;13.37;;;8.00;99.90;;;;;;6112431;23;20447;-70
2023/02/05 07:01:07;;;;;;;25.60;11.90;;;7.90;99.90;;;;;;6117138;23;20490;-69
2023/02/05 07:03:34;;;;;;;23.60;11.77;;;7.90;99.90;;;;;;6109754;23;20462;-69
2023/02/05 07:06:04;;;;;;;31.63;12.90;;;8.00;99.90;;;;;;6111279;23;20423;-67
2023/02/05 07:08:31;;;;;;;39.97;12.77;;;7.90;99.90;;;;;;6107169;23;20411;-69
2023/02/05 07:11:00;;;;;;;23.03;11.23;;;7.90;99.90;;;;;;6114868;23;20431;-70
2023/02/05 07:13:28;;;;;;;26.63;13.20;;;7.90;99.90;;;;;;6112773;23;20430;-70
2023/02/05 07:15:55;;;;;;;27.23;11.60;;;7.90;99.90;;;;;;6102932;23;20414;-68
2023/02/05 07:18:23;;;;;;;33.60;11.90;;;7.90;99.90;;;;;;6110889;23;20386;-68
2023/02/05 07:20:50;;;;;;;19.50;9.73;;;7.90;99.90;;;;;;6109572;23;20504;-69
2023/02/05 07:23:17;;;;;;;30.17;12.67;;;7.90;99.90;;;;;;6111318;23;20411;-69
2023/02/05 07:25:44;;;;;;;24.27;15.30;;;7.90;99.90;;;;;;6109488;23;20382;-67
2023/02/05 07:28:12;;;;;;;24.10;9.17;;;7.90;99.90;;;;;;6110700;23;20389;-69
2023/02/05 07:30:39;;;;;;;19.70;8.73;;;7.80;99.90;;;;;;6108131;23;20494;-69
2023/02/05 07:33:06;;;;;;;14.10;10.07;;;7.70;99.90;;;;;;6111716;23;20428;-70
2023/02/05 07:35:36;;;;;;;24.80;11.10;;;7.60;99.90;;;;;;6114380;23;20506;-70
2023/02/05 07:38:03;;;;;;;31.10;9.97;;;7.50;99.90;;;;;;6062834;23;20373;-69
2023/02/05 07:40:30;;;;;;;22.23;11.30;;;7.50;99.90;;;;;;6112334;23;20950;-70
2023/02/05 07:42:57;;;;;;;23.03;11.90;;;7.60;99.90;;;;;;6115404;23;20415;-69
2023/02/05 07:45:25;;;;;;;24.53;11.33;;;7.50;99.90;;;;;;6117029;23;20400;-69
2023/02/05 07:47:52;;;;;;;18.20;9.77;;;7.60;99.90;;;;;;6120452;23;20447;-70
2023/02/05 07:50:19;;;;;;;19.50;9.97;;;7.50;99.90;;;;;;6121981;23;20432;-70
2023/02/05 07:52:46;;;;;;;17.20;7.33;;;7.50;99.90;;;;;;6120428;23;20511;-70
2023/02/05 07:55:13;;;;;;;21.20;8.80;;;7.50;99.90;;;;;;6112883;23;21094;-70
2023/02/05 07:57:40;;;;;;;15.37;8.30;;;7.50;99.90;;;;;;6113730;23;20421;-69
2023/02/05 08:00:09;;;;;;;19.03;8.60;;;7.50;99.90;;;;;;6114246;23;20390;-71
2023/02/05 08:02:37;;;;;;;12.47;7.47;;;7.50;99.90;;;;;;6059529;23;20823;-71
2023/02/05 08:05:04;;;;;;;15.13;7.83;;;7.40;99.90;;;;;;6111961;23;20498;-68
2023/02/05 08:07:31;;;;;;;16.70;4.80;;;7.50;99.90;;;;;;6112042;23;20593;-69
2023/02/05 08:09:58;;;;;;;20.43;10.40;;;7.50;99.90;;;;;;6112950;23;20446;-69
2023/02/05 08:12:26;;;;;;;20.10;9.40;;;7.50;99.90;;;;;;6111105;23;20470;-68
2023/02/05 08:14:54;;;;;;;9.00;5.60;;;7.40;99.90;;;;;;6058459;23;20417;-71
2023/02/05 08:17:21;;;;;;;18.60;9.07;;;7.50;99.90;;;;;;6108736;23;20649;-71
2023/02/05 08:19:50;;;;;;;13.37;9.03;;;7.40;99.90;;;;;;6113834;23;20732;-70
2023/02/05 08:22:18;;;;;;;15.97;7.80;;;7.50;99.90;;;;;;6113346;23;20405;-70
2023/02/05 08:24:48;;;;;;;17.63;7.53;;;7.50;99.90;;;;;;6113567;23;20447;-70
2023/02/05 08:27:15;;;;;;;12.40;7.40;;;7.50;99.90;;;;;;6112797;23;20411;-70
2023/02/05 08:29:42;;;;;;;14.40;8.13;;;7.50;99.90;;;;;;6114739;23;20453;-70
2023/02/05 08:32:09;;;;;;;15.63;6.23;;;7.70;99.90;;;;;;6110220;23;20516;-71
2023/02/05 08:34:37;;;;;;;15.53;7.60;;;7.60;99.90;;;;;;6106824;23;20498;-71
2023/02/05 08:37:05;;;;;;;11.33;6.00;;;7.50;99.90;;;;;;6109078;23;20392;-70
2023/02/05 08:39:32;;;;;;;15.50;7.50;;;7.40;99.90;;;;;;6112004;23;20386;-70
2023/02/05 08:42:00;;;;;;;3.57;1.60;;;7.30;99.90;;;;;;6112892;23;20541;-70
2023/02/05 08:44:28;;;;;;;17.70;7.73;;;7.30;99.90;;;;;;6113058;23;20424;-70
2023/02/05 08:46:55;;;;;;;10.90;6.40;;;7.00;99.90;;;;;;6118739;23;20624;-71
2023/02/05 08:49:22;;;;;;;7.07;4.90;;;7.10;99.90;;;;;;6118194;23;20390;-70
2023/02/05 08:51:49;;;;;;;3.10;2.00;;;7.30;99.90;;;;;;6110584;23;20733;-70
2023/02/05 08:54:17;;;;;;;1.47;1.20;;;7.00;99.90;;;;;;6116095;23;20442;-71
2023/02/05 08:56:45;;;;;;;2.20;1.73;;;6.90;99.90;;;;;;6121006;23;20446;-71
2023/02/05 08:59:13;;;;;;;1.60;1.50;;;6.90;99.90;;;;;;6093274;23;20410;-71
2023/02/05 09:01:42;;;;;;;1.77;1.10;;;6.90;99.90;;;;;;6071085;23;20698;-71
2023/02/05 09:04:13;;;;;;;3.83;2.17;;;6.90;99.90;;;;;;6115633;23;20393;-71
2023/02/05 09:06:40;;;;;;;2.60;1.50;;;6.90;99.90;;;;;;6122103;23;20374;-72
2023/02/05 09:09:07;;;;;;;1.30;1.20;;;6.80;99.90;;;;;;6118872;23;20803;-70
2023/02/05 09:11:35;;;;;;;3.77;3.43;;;6.90;99.90;;;;;;6120694;23;20530;-71
2023/02/05 09:14:02;;;;;;;2.40;1.27;;;6.90;99.90;;;;;;6119109;23;20449;-71
2023/02/05 09:16:29;;;;;;;2.40;1.07;;;6.90;99.90;;;;;;6121741;23;20983;-70
2023/02/05 09:18:57;;;;;;;1.00;0.70;;;6.90;99.90;;;;;;6118071;23;20386;-72
2023/02/05 09:21:24;;;;;;;2.43;1.33;;;6.80;99.90;;;;;;6120483;23;20440;-70
2023/02/05 09:23:51;;;;;;;1.20;0.97;;;6.90;99.90;;;;;;6118852;23;20405;-71
2023/02/05 09:26:18;;;;;;;3.20;1.10;;;6.90;99.90;;;;;;6120254;23;20434;-71
2023/02/05 09:28:47;;;;;;;6.83;1.63;;;6.80;99.90;;;;;;6091671;23;20383;-71
2023/02/05 09:31:15;;;;;;;1.13;1.03;;;6.80;99.90;;;;;;6117476;23;20476;-70
2023/02/05 09:33:44;;;;;;;6.80;1.10;;;6.70;99.90;;;;;;6121166;23;20385;-70
2023/02/05 09:36:14;;;;;;;1.77;1.03;;;6.70;99.90;;;;;;6121825;23;20443;-71
2023/02/05 09:38:41;;;;;;;1.40;0.90;;;6.80;99.90;;;;;;6119442;23;20464;-69
2023/02/05 09:41:18;;;;;;;1.43;1.03;;;6.80;99.90;;;;;;6118784;23;20414;-70
2023/02/05 09:44:01;;;;;;;1.60;1.47;;;6.90;99.90;;;;;;6132696;23;20600;-70
2023/02/05 09:46:37;;;;;;;1.20;1.10;;;6.90;99.90;;;;;;6120958;23;20362;-70
2023/02/05 09:49:13;;;;;;;1.10;0.90;;;7.00;99.90;;;;;;6121946;23;20420;-70
2023/02/05 09:51:43;;;;;;;1.30;1.10;;;7.00;99.90;;;;;;6123094;23;20401;-70
2023/02/05 09:54:16;;;;;;;1.10;0.90;;;7.00;99.90;;;;;;6122019;23;20880;-71
2023/02/05 09:56:44;;;;;;;1.07;0.90;;;7.00;99.90;;;;;;6121994;23;20432;-71
2023/02/05 09:59:17;;;;;;;2.50;1.20;;;7.20;99.90;;;;;;6069304;23;20478;-71
2023/02/05 10:01:48;;;;;;;8.03;1.57;;;7.30;99.90;;;;;;6120391;23;20508;-70
2023/02/05 10:04:15;;;;;;;1.07;0.80;;;7.20;99.90;;;;;;6121098;23;20377;-71
2023/02/05 10:07:17;;;;;;;0.90;0.70;;;7.40;99.90;;;;;;6118958;23;20414;-70
2023/02/05 10:10:31;;;;;;;1.00;0.80;;;7.30;99.90;;;;;;6116806;23;20401;-69
2023/02/05 10:13:27;;;;;;;0.90;0.70;;;7.30;99.90;;;;;;6119510;23;20384;-71
2023/02/05 10:16:27;;;;;;;1.00;0.87;;;7.30;99.90;;;;;;6119216;23;20650;-70
2023/02/05 10:19:15;;;;;;;1.37;0.97;;;7.40;99.90;;;;;;6068264;23;20421;-71
2023/02/05 10:21:57;;;;;;;1.03;0.80;;;7.30;99.90;;;;;;6120298;23;20813;-70
2023/02/05 10:24:37;;;;;;;1.10;0.90;;;7.30;99.90;;;;;;6116306;23;20452;-68
2023/02/05 10:27:12;;;;;;;1.27;0.87;;;7.20;99.90;;;;;;6117414;23;20739;-69
2023/02/05 10:29:50;;;;;;;1.10;0.70;;;7.10;99.90;;;;;;6118834;23;20788;-69
2023/02/05 10:32:25;;;;;;;1.83;1.13;;;7.10;99.90;;;;;;6119231;23;20444;-72
2023/02/05 10:35:02;;;;;;;1.00;0.77;;;7.10;99.90;;;;;;6119799;23;20484;-69
2023/02/05 10:37:38;;;;;;;1.00;0.70;;;7.10;99.90;;;;;;6120836;23;20358;-69
2023/02/05 10:40:13;;;;;;;3.23;1.50;;;7.10;99.90;;;;;;6117786;23;20826;-70
2023/02/05 10:42:44;;;;;;;0.90;0.70;;;7.00;99.90;;;;;;6119797;23;20539;-70
2023/02/05 10:45:16;;;;;;;1.60;1.13;;;7.20;99.90;;;;;;6119975;23;20402;-70
2023/02/05 10:48:04;;;;;;;2.33;1.17;;;7.10;99.90;;;;;;6119021;23;20518;-70
2023/02/05 10:50:46;;;;;;;2.20;1.10;;;7.10;99.90;;;;;;6115065;23;20697;-70
2023/02/05 10:53:15;;;;;;;5.10;1.10;;;7.10;99.90;;;;;;6120126;23;20372;-70
2023/02/05 10:55:42;;;;;;;2.00;1.40;;;7.10;99.90;;;;;;6116510;23;20639;-70
2023/02/05 10:58:37;;;;;;;1.30;1.00;;;7.10;99.90;;;;;;6119311;23;20411;-71
2023/02/05 11:01:05;;;;;;;2.70;1.10;;;7.10;99.90;;;;;;6118687;23;20432;-70
2023/02/05 11:03:35;;;;;;;2.67;1.47;;;7.10;99.90;;;;;;6120833;23;20415;-71
2023/02/05 11:06:07;;;;;;;0.90;0.70;;;7.10;99.90;;;;;;6122353;23;20445;-70
2023/02/05 11:08:36;;;;;;;2.90;1.67;;;7.10;99.90;;;;;;6120863;23;20392;-71
2023/02/05 11:11:05;;;;;;;4.50;1.33;;;7.20;99.90;;;;;;6120311;23;20427;-72
2023/02/05 11:13:35;;;;;;;1.90;1.23;;;7.10;99.90;;;;;;6120327;23;20404;-70
2023/02/05 11:16:05;;;;;;;3.70;1.30;;;7.10;99.90;;;;;;6119103;23;20482;-70
2023/02/05 11:18:39;;;;;;;2.00;1.53;;;7.10;99.90;;;;;;6118048;23;20481;-70
2023/02/05 11:21:08;;;;;;;1.67;1.47;;;7.10;99.90;;;;;;6119406;23;20949;-70
2023/02/05 11:23:39;;;;;;;12.83;1.10;;;7.00;99.90;;;;;;6118031;23;20409;-70
2023/02/05 11:26:15;;;;;;;1.30;1.10;;;7.10;99.90;;;;;;6120587;23;20441;-71
2023/02/05 11:28:42;;;;;;;1.30;1.10;;;7.00;99.90;;;;;;6117389;23;20404;-70
2023/02/05 11:31:29;;;;;;;2.60;1.27;;;7.10;99.90;;;;;;6119383;23;20515;-71
2023/02/05 11:34:11;;;;;;;1.87;1.67;;;7.10;99.90;;;;;;6126719;23;20366;-70
2023/02/05 11:36:47;;;;;;;1.47;1.17;;;7.10;99.90;;;;;;6119692;23;20431;-70
2023/02/05 11:39:27;;;;;;;1.40;1.00;;;7.10;99.90;;;;;;6120703;23;20427;-71
2023/02/05 11:41:55;;;;;;;1.93;1.17;;;7.10;99.90;;;;;;6118957;23;20429;-69
2023/02/05 11:44:25;;;;;;;2.40;1.67;;;7.10;99.90;;;;;;6120788;23;20434;-70
2023/02/05 11:46:55;;;;;;;0.90;0.70;;;7.00;99.90;;;;;;6118510;23;20414;-70
2023/02/05 11:49:29;;;;;;;1.50;1.00;;;7.00;99.90;;;;;;6121042;23;20468;-71
2023/02/05 11:51:57;;;;;;;1.00;0.80;;;6.90;99.90;;;;;;6113556;23;20506;-71
2023/02/05 11:54:30;;;;;;;2.17;1.97;;;7.00;99.90;;;;;;6111614;23;20434;-71
2023/02/05 11:57:09;;;;;;;2.97;1.73;;;7.00;99.90;;;;;;6063648;23;20438;-70
2023/02/05 11:59:36;;;;;;;7.00;1.00;;;7.00;99.90;;;;;;6105828;23;20419;-71
2023/02/05 12:02:30;;;;;;;3.00;1.70;;;7.00;99.90;;;;;;6113418;23;20441;-70
2023/02/05 12:05:04;;;;;;;3.07;1.50;;;6.90;99.90;;;;;;6126034;23;20703;-72
2023/02/05 12:07:37;;;;;;;4.30;3.90;;;7.00;99.90;;;;;;6112799;23;20362;-70
2023/02/05 12:10:13;;;;;;;5.73;2.30;;;7.00;99.90;;;;;;6114034;23;20479;-69
2023/02/05 12:12:49;;;;;;;1.80;1.70;;;7.00;99.90;;;;;;6116883;23;20966;-71
2023/02/05 12:15:23;;;;;;;4.83;4.23;;;7.00;99.90;;;;;;6115737;23;20374;-70
2023/02/05 12:17:58;;;;;;;2.90;1.43;;;7.20;99.90;;;;;;6112881;23;20391;-70
2023/02/05 12:20:32;;;;;;;1.77;1.20;;;7.10;99.90;;;;;;6115679;23;20429;-70
2023/02/05 12:23:29;;;;;;;4.07;2.10;;;6.90;99.90;;;;;;6115208;23;20415;-71
2023/02/05 12:26:17;;;;;;;3.20;1.73;;;6.90;99.90;;;;;;6118363;23;20370;-70
2023/02/05 12:28:54;;;;;;;1.50;1.37;;;7.00;99.90;;;;;;6112264;23;20401;-70
2023/02/05 12:31:33;;;;;;;7.00;1.77;;;7.00;99.90;;;;;;6111845;23;20444;-71
2023/02/05 12:34:11;;;;;;;2.33;1.30;;;7.00;99.90;;;;;;6067120;23;20398;-72
2023/02/05 12:36:53;;;;;;;4.77;3.20;;;7.00;99.90;;;;;;6068233;23;20510;-71
2023/02/05 12:39:37;;;;;;;1.23;1.13;;;7.00;99.90;;;;;;6114829;23;20946;-70
2023/02/05 12:42:15;;;;;;;1.80;1.17;;;7.00;99.90;;;;;;6112118;23;20989;-70
2023/02/05 12:44:57;;;;;;;2.60;1.67;;;7.00;99.90;;;;;;6109916;23;20381;-70
2023/02/05 12:47:49;;;;;;;1.83;1.37;;;7.00;99.90;;;;;;6107922;23;20365;-70
2023/02/05 12:50:43;;;;;;;2.70;1.83;;;7.00;99.90;;;;;;6113133;23;20391;-71
2023/02/05 12:53:28;;;;;;;2.50;1.50;;;7.10;99.90;;;;;;6115199;23;20370;-69
2023/02/05 12:56:21;;;;;;;1.60;1.40;;;7.00;99.90;;;;;;6113934;23;20830;-70
2023/02/05 12:58:52;;;;;;;1.67;1.43;;;6.90;99.90;;;;;;6123177;23;20415;-70
2023/02/05 13:01:23;;;;;;;1.80;1.20;;;7.00;99.90;;;;;;6117977;23;20423;-69
2023/02/05 13:03:53;;;;;;;1.50;0.83;;;7.00;99.90;;;;;;6119214;23;20411;-71
2023/02/05 13:06:26;;;;;;;1.37;0.97;;;7.10;99.90;;;;;;6118918;23;20430;-70
2023/02/05 13:08:59;;;;;;;1.27;1.17;;;7.00;99.90;;;;;;6118615;23;20417;-70
2023/02/05 13:11:30;;;;;;;1.33;1.23;;;7.10;99.90;;;;;;6119182;23;20936;-70
2023/02/05 13:14:03;;;;;;;1.70;1.60;;;7.00;99.90;;;;;;6116852;23;20386;-70
2023/02/05 13:16:38;;;;;;;2.17;2.07;;;6.80;99.90;;;;;;6120523;23;20434;-70
2023/02/05 13:19:18;;;;;;;1.13;1.00;;;6.70;99.90;;;;;;6119131;23;20394;-70